Time;durP1;ratioP1;P1;durP2;ratioP2;P2;SDS_P1;SDS_P2;PMS_P1;PMS_P2;Temp;Humidity;BMP_temperature;BMP_pressure;BME280_temperature;BME280_humidity;BME280_pressure;Samples;Min_cycle;Max_cycle;Signal;HPM_P1;HPM_P2
2021/12/16 00:09:05;;;;;;;11.50;7.63;;;;;;;8.75;85.77;103112.91;5029477;28;20197;-76
2021/12/16 00:31:04;;;;;;;11.23;7.00;;;;;;;8.77;87.04;103116.44;5067821;28;20179;-76
2021/12/16 00:33:43;;;;;;;16.83;7.30;;;;;;;8.76;86.67;103112.09;5028969;28;20788;-75
2021/12/16 00:36:11;;;;;;;12.07;7.67;;;;;;;8.76;87.51;103118.91;5029354;28;20183;-75
2021/12/16 00:38:39;;;;;;;12.27;7.40;;;;;;;8.76;87.21;103118.91;5028852;28;20194;-76
2021/12/16 00:41:06;;;;;;;12.67;7.23;;;;;;;8.75;87.74;103107.78;5029259;28;20190;-75
2021/12/16 00:43:39;;;;;;;16.70;8.63;;;;;;;8.76;87.84;103111.25;5028268;28;20210;-76
2021/12/16 00:54:13;;;;;;;12.30;8.10;;;;;;;8.73;87.66;103101.72;5031571;28;20226;-76
2021/12/16 00:56:56;;;;;;;11.83;7.27;;;;;;;8.73;87.95;103106.81;5031898;28;20254;-76
2021/12/16 00:59:24;;;;;;;13.07;7.90;;;;;;;8.75;88.12;103123.13;5032804;28;20185;-76
2021/12/16 01:02:10;;;;;;;17.07;8.23;;;;;;;8.74;88.26;103126.47;5033320;28;20217;-75
2021/12/16 01:35:38;;;;;;;16.37;8.80;;;;;;;8.73;89.54;103144.25;5070884;28;20650;-75
2021/12/16 01:46:23;;;;;;;15.60;9.53;;;;;;;8.75;89.03;103145.25;5070296;28;20185;-75
2021/12/16 01:51:36;;;;;;;16.97;10.00;;;;;;;8.72;89.31;103148.47;5070312;28;20173;-75
2021/12/16 01:56:59;;;;;;;14.27;9.10;;;;;;;8.72;88.62;103151.03;5069440;28;20583;-75
2021/12/16 01:59:33;;;;;;;16.27;9.23;;;;;;;8.74;89.52;103151.09;5069956;28;20670;-75
2021/12/16 02:02:10;;;;;;;16.23;9.87;;;;;;;8.74;89.41;103152.00;5066941;28;20189;-75
2021/12/16 02:04:42;;;;;;;16.27;9.40;;;;;;;8.72;89.91;103155.25;5051169;28;20256;-75
2021/12/16 02:07:25;;;;;;;15.43;9.50;;;;;;;8.71;89.74;103159.47;5051412;28;20170;-75
2021/12/16 02:09:50;;;;;;;19.17;10.17;;;;;;;8.70;89.17;103161.94;5049718;28;20659;-75
2021/12/16 02:12:53;;;;;;;17.57;9.60;;;;;;;8.70;90.19;103160.25;5049824;28;20185;-75
2021/12/16 02:32:11;;;;;;;18.00;11.87;;;;;;;8.69;90.31;103171.25;5049744;28;20194;-75
2021/12/16 02:35:26;;;;;;;15.23;10.83;;;;;;;8.70;90.12;103167.06;5034077;28;20319;-74
2021/12/16 02:37:32;;;;;;;21.13;11.20;;;;;;;8.69;90.98;103163.59;5048395;28;20296;-75
2021/12/16 02:39:58;;;;;;;19.73;11.73;;;;;;;8.69;90.16;103161.03;5050200;28;20668;-74
2021/12/16 02:42:37;;;;;;;17.77;12.70;;;;;;;8.68;90.79;103166.06;5047446;28;20643;-75
2021/12/16 02:50:21;;;;;;;23.20;13.10;;;;;;;8.67;90.80;103170.25;5050486;28;20185;-75
2021/12/16 02:52:46;;;;;;;23.77;12.90;;;;;;;8.65;91.30;103173.50;5047114;28;20213;-75
2021/12/16 02:55:14;;;;;;;26.57;14.00;;;;;;;8.65;91.17;103173.50;5032348;28;20365;-75
2021/12/16 02:57:49;;;;;;;26.47;14.37;;;;;;;8.63;91.33;103177.66;5049021;28;20203;-74
2021/12/16 03:00:15;;;;;;;23.70;14.00;;;;;;;8.62;91.17;103174.19;5042620;28;20271;-74
2021/12/16 03:02:48;;;;;;;22.37;13.57;;;;;;;8.63;91.67;103177.66;5042204;28;20328;-74
2021/12/16 03:05:15;;;;;;;28.07;15.07;;;;;;;8.62;91.69;103181.84;5028901;28;20213;-74
2021/12/16 03:07:40;;;;;;;26.90;14.17;;;;;;;8.61;92.18;103177.53;5043329;28;20193;-74
2021/12/16 03:10:50;;;;;;;26.67;15.47;;;;;;;8.60;92.54;103183.44;5042485;28;20189;-74
2021/12/16 03:13:23;;;;;;;30.30;16.30;;;;;;;8.60;92.53;103188.53;5042399;28;20693;-74
2021/12/16 03:16:01;;;;;;;26.37;15.60;;;;;;;8.59;92.84;103197.00;5036189;28;20185;-74
2021/12/16 03:18:42;;;;;;;34.40;16.30;;;;;;;8.57;92.88;103196.00;5048458;28;20264;-74
2021/12/16 03:21:17;;;;;;;34.63;17.37;;;;;;;8.57;93.18;103195.13;5046697;28;20319;-75
2021/12/16 03:39:51;;;;;;;33.90;18.33;;;;;;;8.48;94.87;103210.72;5049459;28;20181;-75
2021/12/16 03:42:22;;;;;;;37.37;19.70;;;;;;;8.46;95.13;103202.09;5047698;28;20194;-74
2021/12/16 03:45:04;;;;;;;36.87;19.53;;;;;;;8.45;95.21;103199.44;5048539;28;20233;-75
2021/12/16 03:47:38;;;;;;;34.97;18.67;;;;;;;8.43;95.33;103194.22;5048474;28;20186;-75
2021/12/16 03:50:08;;;;;;;37.83;20.00;;;;;;;8.44;94.84;103195.09;5046939;28;20570;-74
2021/12/16 03:52:33;;;;;;;39.40;19.60;;;;;;;8.43;95.46;103203.56;5034213;28;20239;-74
2021/12/16 03:54:59;;;;;;;36.80;19.30;;;;;;;8.43;94.52;103201.88;5039221;28;20751;-75
2021/12/16 03:57:27;;;;;;;41.77;20.63;;;;;;;8.39;95.18;103193.94;5039938;28;20189;-75
2021/12/16 03:59:53;;;;;;;40.37;20.37;;;;;;;8.42;95.16;103197.56;5047285;28;20185;-75
2021/12/16 04:02:32;;;;;;;37.77;20.37;;;;;;;8.42;95.16;103202.66;5038147;28;20699;-75
2021/12/16 04:04:59;;;;;;;42.23;20.17;;;;;;;8.40;96.00;103203.34;5029334;28;20206;-74
2021/12/16 04:07:30;;;;;;;46.90;22.57;;;;;;;8.38;94.80;103210.91;5036840;28;20278;-75
2021/12/16 04:10:21;;;;;;;40.63;20.63;;;;;;;8.37;95.20;103209.13;5032381;28;20186;-74
2021/12/16 04:12:48;;;;;;;37.13;20.07;;;;;;;8.38;95.29;103223.66;5027965;28;20228;-74
2021/12/16 04:15:14;;;;;;;36.33;21.03;;;;;;;8.38;95.87;103226.22;5028679;28;20224;-74
2021/12/16 04:17:45;;;;;;;43.23;20.07;;;;;;;8.37;96.31;103221.91;5048009;28;20170;-74
2021/12/16 04:20:14;;;;;;;35.90;19.67;;;;;;;8.38;95.60;103217.69;5050698;28;20197;-74
2021/12/16 04:22:43;;;;;;;42.17;21.70;;;;;;;8.38;96.24;103220.25;5049511;28;20190;-75
2021/12/16 04:25:17;;;;;;;42.73;20.00;;;;;;;8.36;96.42;103217.59;5051027;28;20259;-74
2021/12/16 04:27:43;;;;;;;44.37;21.17;;;;;;;8.36;95.57;103224.34;5052671;28;20181;-74
2021/12/16 04:30:14;;;;;;;39.27;21.10;;;;;;;8.39;95.91;103233.09;5051240;28;20225;-74
2021/12/16 04:32:42;;;;;;;45.63;20.67;;;;;;;8.38;95.75;103226.22;5049864;28;20240;-74
2021/12/16 04:35:08;;;;;;;38.13;19.80;;;;;;;8.39;95.96;103224.56;5034100;28;20198;-75
2021/12/16 04:37:35;;;;;;;38.77;18.90;;;;;;;8.40;95.89;103228.88;5047577;28;20190;-75
2021/12/16 04:40:03;;;;;;;34.50;19.70;;;;;;;8.39;95.32;103239.88;5031385;28;20678;-75
2021/12/16 04:42:30;;;;;;;38.93;20.33;;;;;;;8.38;96.28;103240.66;5034638;28;20674;-75
2021/12/16 04:44:56;;;;;;;37.80;21.37;;;;;;;8.38;96.20;103233.88;5051403;28;20205;-75
2021/12/16 04:47:21;;;;;;;34.87;20.43;;;;;;;8.37;96.33;103242.31;5049513;28;20196;-75
2021/12/16 04:49:48;;;;;;;36.30;21.63;;;;;;;8.37;96.15;103237.22;5051140;28;20185;-75
2021/12/16 04:52:17;;;;;;;43.17;21.47;;;;;;;8.36;96.19;103243.13;5047021;28;20212;-75
2021/12/16 04:54:44;;;;;;;41.97;21.27;;;;;;;8.38;96.18;103240.66;5051286;28;20209;-75
2021/12/16 04:57:10;;;;;;;42.17;22.23;;;;;;;8.37;95.83;103239.78;5035662;28;20198;-75
2021/12/16 04:59:39;;;;;;;31.80;19.73;;;;;;;8.38;95.72;103249.19;5033588;28;20187;-75
2021/12/16 05:02:12;;;;;;;41.63;20.43;;;;;;;8.38;95.96;103249.19;5037338;28;20704;-75
2021/12/16 05:05:05;;;;;;;39.63;21.13;;;;;;;8.36;95.98;103255.88;5045765;28;20249;-75
2021/12/16 05:07:32;;;;;;;34.80;20.00;;;;;;;8.37;95.93;103254.19;5048061;28;20197;-75
2021/12/16 05:10:18;;;;;;;40.30;20.40;;;;;;;8.37;96.20;103255.09;5036254;28;20201;-75
2021/12/16 05:12:55;;;;;;;35.03;19.67;;;;;;;8.37;96.33;103265.28;5030990;28;20210;-74
2021/12/16 05:15:29;;;;;;;33.20;19.33;;;;;;;8.39;96.59;103273.94;5031300;28;20237;-74
2021/12/16 05:17:56;;;;;;;41.27;20.43;;;;;;;8.38;96.46;103272.16;5015520;28;20298;-74
2021/12/16 05:20:30;;;;;;;41.60;22.03;;;;;;;8.36;96.77;103278.84;5032383;28;20268;-74
2021/12/16 05:28:27;;;;;;;41.50;21.93;;;;;;;8.39;96.54;103288.38;5049854;28;20529;-74
2021/12/16 05:30:53;;;;;;;42.20;21.37;;;;;;;8.41;96.86;103292.81;5032163;28;20186;-75
2021/12/16 05:33:20;;;;;;;38.17;21.17;;;;;;;8.40;96.65;103301.25;5030778;28;20224;-74
2021/12/16 05:35:46;;;;;;;41.27;20.67;;;;;;;8.39;97.01;103299.44;5032583;28;20194;-75
2021/12/16 05:38:12;;;;;;;45.23;22.77;;;;;;;8.39;96.71;103307.13;5017657;28;20724;-74
2021/12/16 05:40:38;;;;;;;47.70;23.47;;;;;;;8.40;96.69;103311.47;5046205;28;20182;-75
2021/12/16 05:43:14;;;;;;;44.03;23.90;;;;;;;8.39;97.13;103309.66;5031180;28;20177;-74
2021/12/16 05:45:41;;;;;;;48.00;23.73;;;;;;;8.40;96.64;103315.66;5048362;28;20192;-74
2021/12/16 05:48:10;;;;;;;44.63;23.17;;;;;;;8.41;97.38;103325.09;5031262;28;20761;-75
2021/12/16 05:50:39;;;;;;;54.73;25.63;;;;;;;8.40;97.94;103325.88;5041729;28;20276;-74
2021/12/16 05:53:06;;;;;;;50.80;25.10;;;;;;;8.41;97.19;103323.44;5018015;28;20222;-74
2021/12/16 05:55:32;;;;;;;51.60;25.03;;;;;;;8.42;97.20;103331.97;5013901;28;20186;-74
2021/12/16 05:58:10;;;;;;;50.70;23.63;;;;;;;8.42;97.88;103335.41;5036641;28;20231;-75
2021/12/16 06:00:41;;;;;;;51.93;25.87;;;;;;;8.40;97.75;103329.34;5032043;28;20200;-74
2021/12/16 06:03:08;;;;;;;57.50;25.50;;;;;;;8.42;97.92;103334.50;5045155;28;20178;-74
2021/12/16 06:05:37;;;;;;;54.00;26.90;;;;;;;8.42;97.40;103339.63;5053359;28;20209;-74
2021/12/16 06:08:03;;;;;;;58.27;26.93;;;;;;;8.45;97.03;103337.28;5033223;28;20569;-75
2021/12/16 06:13:13;;;;;;;58.20;27.50;;;;;;;8.44;97.38;103345.72;5049945;28;20292;-74
2021/12/16 06:22:24;;;;;;;58.80;26.97;;;;;;;8.48;97.38;103346.03;5051315;28;20208;-75
2021/12/16 06:27:07;;;;;;;62.57;28.67;;;;;;;8.50;98.17;103356.34;5062065;28;20701;-75
2021/12/16 06:29:34;;;;;;;66.83;31.27;;;;;;;8.50;97.82;103352.16;5057570;28;20193;-75
2021/12/16 06:32:00;;;;;;;72.43;31.70;;;;;;;8.51;97.97;103348.81;5062272;28;20180;-76
2021/12/16 06:34:25;;;;;;;69.10;31.73;;;;;;;8.52;97.45;103350.56;5069327;28;20590;-75
2021/12/16 06:36:51;;;;;;;73.17;32.23;;;;;;;8.52;98.20;103358.22;5052590;28;20276;-74
2021/12/16 06:39:17;;;;;;;78.57;31.83;;;;;;;8.53;98.72;103369.34;5049127;28;20198;-75
2021/12/16 06:42:06;;;;;;;79.00;32.93;;;;;;;8.53;98.40;103371.91;5050274;28;20666;-75
2021/12/16 06:44:52;;;;;;;70.63;32.00;;;;;;;8.53;98.01;103366.78;5034504;28;20368;-74
2021/12/16 06:47:23;;;;;;;68.97;31.37;;;;;;;8.53;99.01;103380.41;5054415;28;20215;-74
2021/12/16 06:49:52;;;;;;;68.77;30.80;;;;;;;8.54;98.26;103382.22;5070212;28;20190;-75
2021/12/16 06:52:20;;;;;;;66.13;31.53;;;;;;;8.55;98.60;103383.97;5070291;28;20176;-74
2021/12/16 06:57:35;;;;;;;70.73;30.87;;;;;;;8.57;98.49;103396.84;5063324;28;20192;-75
2021/12/16 07:00:14;;;;;;;64.93;30.63;;;;;;;8.58;98.69;103401.19;5050250;28;20276;-74
2021/12/16 07:02:55;;;;;;;63.73;28.93;;;;;;;8.59;98.78;103406.41;5050464;28;20264;-74
2021/12/16 07:05:23;;;;;;;72.40;30.40;;;;;;;8.60;97.98;103415.81;5050318;28;20188;-74
2021/12/16 07:07:49;;;;;;;70.20;31.23;;;;;;;8.60;98.62;103408.16;5050071;28;20655;-74
2021/12/16 07:10:16;;;;;;;67.77;31.40;;;;;;;8.60;98.15;103415.81;5050070;28;20255;-75
2021/12/16 07:12:47;;;;;;;68.63;30.63;;;;;;;8.61;98.00;103415.03;5048739;28;20245;-75
2021/12/16 07:15:17;;;;;;;65.97;29.23;;;;;;;8.63;98.53;103415.13;5050138;28;20263;-74
2021/12/16 07:17:43;;;;;;;73.17;30.47;;;;;;;8.64;98.50;103412.69;5050350;28;20185;-74
2021/12/16 07:20:11;;;;;;;61.23;29.77;;;;;;;8.66;98.66;103423.88;5049996;28;20642;-75
2021/12/16 07:22:36;;;;;;;66.77;31.47;;;;;;;8.66;97.88;103418.78;5048639;28;20284;-75
2021/12/16 07:25:04;;;;;;;66.87;31.40;;;;;;;8.67;98.57;103428.22;5053444;28;20316;-76
2021/12/16 07:27:31;;;;;;;64.47;30.87;;;;;;;8.67;99.10;103438.44;5049695;28;20268;-75
2021/12/16 07:29:56;;;;;;;61.57;29.17;;;;;;;8.69;98.19;103438.53;5049714;28;20671;-76
2021/12/16 07:32:21;;;;;;;62.07;29.73;;;;;;;8.69;98.44;103443.66;5049645;28;20198;-75
2021/12/16 07:34:47;;;;;;;73.20;32.13;;;;;;;8.71;98.37;103444.66;5049737;28;20194;-75
2021/12/16 07:37:12;;;;;;;57.93;29.90;;;;;;;8.71;98.81;103450.63;5048314;28;20739;-76
2021/12/16 07:39:40;;;;;;;62.30;30.53;;;;;;;8.71;98.43;103454.88;5049492;28;20178;-75
2021/12/16 07:42:11;;;;;;;63.37;29.27;;;;;;;8.72;98.72;103462.66;5049635;28;20204;-75
2021/12/16 07:44:36;;;;;;;58.97;28.93;;;;;;;8.73;98.39;103461.84;5049666;28;20270;-74
2021/12/16 07:47:05;;;;;;;60.17;28.63;;;;;;;8.73;98.44;103469.53;5049597;28;20197;-77
2021/12/16 07:49:42;;;;;;;58.37;28.50;;;;;;;8.74;98.92;103465.28;5049673;28;20182;-75
2021/12/16 07:52:20;;;;;;;59.23;28.13;;;;;;;8.77;98.98;103475.72;5049179;28;20189;-75
2021/12/16 07:54:45;;;;;;;56.97;27.67;;;;;;;8.76;98.49;103485.03;5047397;28;20694;-75
2021/12/16 07:57:11;;;;;;;58.43;28.20;;;;;;;8.76;98.55;103482.47;5043254;28;20186;-76
2021/12/16 07:59:37;;;;;;;62.37;26.87;;;;;;;8.77;98.54;103484.28;5029743;28;20182;-77
2021/12/16 08:02:05;;;;;;;54.73;26.73;;;;;;;8.78;98.60;103496.25;5029730;28;20674;-77
2021/12/16 08:04:31;;;;;;;57.23;28.03;;;;;;;8.78;98.54;103492.81;5029302;28;20202;-76
2021/12/16 08:07:04;;;;;;;56.97;26.57;;;;;;;8.78;98.18;103495.38;5029334;28;20197;-76
2021/12/16 08:09:31;;;;;;;57.00;26.27;;;;;;;8.78;98.90;103496.25;5032973;28;20187;-77
2021/12/16 08:11:58;;;;;;;60.23;28.83;;;;;;;8.78;98.03;103506.47;4987273;28;20232;-75
2021/12/16 08:14:25;;;;;;;52.30;25.87;;;;;;;8.78;97.98;103498.81;5048645;28;20213;-76
2021/12/16 08:16:50;;;;;;;50.77;25.33;;;;;;;8.81;98.37;103514.34;5049731;28;20193;-77
2021/12/16 08:19:16;;;;;;;51.30;24.67;;;;;;;8.82;97.89;103511.03;5052117;28;20251;-77
2021/12/16 08:21:41;;;;;;;51.17;25.03;;;;;;;8.83;98.46;103511.91;5050005;28;20614;-77
2021/12/16 08:24:13;;;;;;;54.80;25.73;;;;;;;8.84;98.27;103514.56;5050742;28;20205;-75
2021/12/16 08:26:40;;;;;;;52.60;25.10;;;;;;;8.84;98.04;103519.66;5048619;28;20549;-76
2021/12/16 08:29:05;;;;;;;45.93;23.77;;;;;;;8.86;98.52;103535.09;5048866;28;20201;-75
2021/12/16 08:31:31;;;;;;;47.60;23.33;;;;;;;8.87;98.75;103531.75;5049067;28;20186;-76
2021/12/16 08:33:58;;;;;;;44.33;23.73;;;;;;;8.87;98.62;103537.78;5047416;28;20279;-77
2021/12/16 08:36:23;;;;;;;48.53;22.87;;;;;;;8.89;97.87;103532.78;5049418;28;20185;-76
2021/12/16 08:38:49;;;;;;;45.67;21.70;;;;;;;8.90;97.63;103532.00;5048826;28;20186;-76
2021/12/16 08:41:29;;;;;;;40.83;22.23;;;;;;;8.89;98.25;103527.66;5048726;28;20198;-76
2021/12/16 08:43:55;;;;;;;43.47;22.57;;;;;;;8.90;98.40;103530.31;5048775;28;20205;-75
2021/12/16 08:46:23;;;;;;;42.60;22.50;;;;;;;8.91;98.15;103528.66;5048829;28;20264;-75
2021/12/16 08:48:50;;;;;;;44.53;24.77;;;;;;;8.90;97.92;103526.88;5048494;28;20603;-74
2021/12/16 08:51:18;;;;;;;43.93;23.67;;;;;;;8.93;97.89;103538.19;5048573;28;20193;-73
2021/12/16 08:53:44;;;;;;;45.30;23.40;;;;;;;8.96;97.66;103530.75;5047779;28;20221;-74
2021/12/16 08:56:10;;;;;;;43.20;22.97;;;;;;;9.00;97.96;103534.38;5048710;28;20196;-76
2021/12/16 08:58:37;;;;;;;45.57;23.87;;;;;;;9.01;97.50;103528.50;5030779;28;20198;-74
2021/12/16 09:01:37;;;;;;;44.10;22.23;;;;;;;9.03;98.04;103534.63;5027353;28;20198;-75
2021/12/16 09:04:03;;;;;;;39.27;20.60;;;;;;;9.04;97.26;103536.38;5016583;28;20257;-75
2021/12/16 09:06:29;;;;;;;35.63;20.40;;;;;;;9.07;97.50;103539.16;5049546;28;20217;-75
2021/12/16 09:08:55;;;;;;;43.40;21.00;;;;;;;9.13;97.07;103553.22;5052160;28;20200;-75
2021/12/16 09:11:24;;;;;;;36.60;19.63;;;;;;;9.17;97.30;103560.31;5038384;28;20756;-75
2021/12/16 09:13:53;;;;;;;38.10;21.57;;;;;;;9.24;97.14;103562.53;5051859;28;20228;-75
2021/12/16 09:16:22;;;;;;;39.20;19.13;;;;;;;9.26;96.37;103567.75;5051503;28;20260;-76
2021/12/16 09:18:48;;;;;;;36.10;20.07;;;;;;;9.24;96.19;103569.28;5050783;28;20581;-75
2021/12/16 09:21:18;;;;;;;38.27;20.57;;;;;;;9.26;96.47;103562.63;5051857;28;20190;-75
2021/12/16 09:23:45;;;;;;;37.40;19.17;;;;;;;9.26;96.86;103570.31;5051827;28;20338;-75
2021/12/16 09:26:11;;;;;;;31.70;18.73;;;;;;;9.31;96.17;103559.59;5051899;28;20316;-75
2021/12/16 09:28:37;;;;;;;36.47;20.20;;;;;;;9.43;95.96;103562.09;5051784;28;20715;-75
2021/12/16 09:31:09;;;;;;;28.27;17.63;;;;;;;9.60;95.34;103562.44;5050514;28;20300;-76
2021/12/16 09:33:35;;;;;;;32.93;17.73;;;;;;;9.64;94.41;103558.41;5050438;28;20229;-72
2021/12/16 09:36:00;;;;;;;35.30;18.57;;;;;;;10.08;94.20;103549.44;5052096;28;20556;-71
2021/12/16 09:38:27;;;;;;;29.57;17.00;;;;;;;10.28;92.58;103537.13;5051732;28;20268;-73
2021/12/16 09:40:55;;;;;;;29.70;17.07;;;;;;;10.10;92.32;103540.22;5051825;28;20198;-70
2021/12/16 09:43:24;;;;;;;26.40;14.70;;;;;;;10.25;92.14;103549.75;5051781;28;20201;-73
2021/12/16 09:45:53;;;;;;;23.73;14.93;;;;;;;10.56;90.40;103553.44;5052067;28;20566;-72
2021/12/16 09:48:18;;;;;;;24.57;13.70;;;;;;;10.73;89.62;103560.53;5052014;28;20186;-73
2021/12/16 09:50:43;;;;;;;24.93;14.17;;;;;;;10.87;88.21;103559.69;5033732;28;20196;-76
2021/12/16 09:53:09;;;;;;;24.70;13.90;;;;;;;10.81;88.07;103559.34;5051211;28;20308;-76
2021/12/16 09:55:35;;;;;;;21.07;12.60;;;;;;;11.04;87.18;103553.94;5052808;28;20566;-74
2021/12/16 09:58:01;;;;;;;22.27;13.40;;;;;;;10.96;87.12;103544.88;5038517;28;20186;-76
2021/12/16 10:00:29;;;;;;;19.67;12.77;;;;;;;10.98;87.10;103555.25;5031396;28;20187;-76
2021/12/16 10:02:56;;;;;;;23.43;13.30;;;;;;;10.83;87.95;103562.84;5031381;28;20255;-74
2021/12/16 10:05:22;;;;;;;17.53;12.67;;;;;;;11.39;86.07;103556.06;5039196;28;20205;-74
2021/12/16 10:07:47;;;;;;;20.37;12.30;;;;;;;11.53;84.29;103560.31;5049854;28;20666;-74
2021/12/16 10:10:19;;;;;;;15.37;10.97;;;;;;;11.68;83.93;103574.09;5050927;28;20280;-74
2021/12/16 10:12:48;;;;;;;20.53;11.03;;;;;;;12.46;81.28;103573.50;5050443;28;20237;-75
2021/12/16 10:18:09;;;;;;;18.80;9.97;;;;;;;11.67;82.60;103578.34;5049902;28;20264;-74
2021/12/16 10:20:40;;;;;;;14.03;9.20;;;;;;;11.59;83.19;103576.06;5050668;28;20235;-74
2021/12/16 10:23:10;;;;;;;13.33;8.67;;;;;;;11.35;83.95;103578.09;5051357;28;20197;-77
2021/12/16 10:25:55;;;;;;;11.10;7.70;;;;;;;11.21;83.36;103584.06;5047300;28;20971;-75
2021/12/16 10:28:27;;;;;;;14.57;7.60;;;;;;;11.20;82.66;103582.25;5041261;28;20239;-74
2021/12/16 10:31:03;;;;;;;16.40;8.00;;;;;;;11.14;83.38;103581.00;5050721;28;20635;-74
2021/12/16 10:33:47;;;;;;;14.60;8.50;;;;;;;11.32;82.50;103580.47;5031003;28;20887;-74
2021/12/16 10:36:23;;;;;;;14.10;7.40;;;;;;;11.23;81.45;103584.13;5031027;28;20624;-74
2021/12/16 10:39:14;;;;;;;11.63;7.07;;;;;;;11.31;81.04;103590.63;5030339;28;20194;-74
2021/12/16 10:41:51;;;;;;;12.07;6.87;;;;;;;11.50;80.95;103593.50;5042971;28;20274;-75
2021/12/16 10:44:19;;;;;;;10.13;6.67;;;;;;;11.31;80.25;103606.91;5038949;28;20200;-74
2021/12/16 10:46:46;;;;;;;13.33;6.77;;;;;;;11.16;81.15;103598.25;5051065;28;20193;-74
2021/12/16 10:49:15;;;;;;;9.10;6.60;;;;;;;11.84;78.55;103581.91;5050393;28;20193;-74
2021/12/16 10:51:44;;;;;;;11.00;6.30;;;;;;;11.54;79.54;103583.50;5049302;28;20190;-74
2021/12/16 10:54:15;;;;;;;10.83;6.40;;;;;;;11.45;79.87;103584.63;5050337;28;20297;-74
2021/12/16 10:56:49;;;;;;;10.87;6.40;;;;;;;12.56;76.31;103589.50;5050588;28;20178;-74
2021/12/16 10:59:19;;;;;;;12.30;6.60;;;;;;;13.11;73.32;103588.28;5050545;28;20547;-75
2021/12/16 11:01:46;;;;;;;11.90;6.47;;;;;;;12.34;75.35;103596.81;5050536;28;20211;-74
2021/12/16 11:04:21;;;;;;;11.33;5.87;;;;;;;11.84;76.57;103599.88;5035332;28;20601;-74
2021/12/16 11:07:00;;;;;;;9.10;5.83;;;;;;;11.71;78.20;103602.50;5040771;28;20185;-74
2021/12/16 11:09:39;;;;;;;11.97;6.53;;;;;;;11.71;77.99;103607.66;5039096;28;20209;-74
2021/12/16 11:12:26;;;;;;;10.47;6.00;;;;;;;13.90;70.58;103577.81;5042642;28;20189;-74
2021/12/16 11:14:56;;;;;;;9.33;5.80;;;;;;;12.75;73.44;103592.28;5049738;28;20332;-74
2021/12/16 11:17:24;;;;;;;10.53;5.47;;;;;;;12.42;74.70;103581.81;5049920;28;20194;-75
2021/12/16 11:20:01;;;;;;;8.97;5.47;;;;;;;12.41;75.09;103590.34;5047721;28;20197;-75
2021/12/16 11:22:34;;;;;;;10.60;6.03;;;;;;;12.09;75.51;103600.47;5049763;28;20182;-74
2021/12/16 11:25:13;;;;;;;12.00;6.63;;;;;;;13.29;73.34;103588.34;5049403;28;20209;-74
2021/12/16 11:27:39;;;;;;;7.80;5.83;;;;;;;12.78;71.96;103600.19;5049630;28;20639;-74
2021/12/16 11:30:25;;;;;;;11.20;6.50;;;;;;;12.15;74.33;103604.28;5049437;28;20201;-74
2021/12/16 11:32:52;;;;;;;8.80;6.17;;;;;;;11.85;75.24;103611.91;5048453;28;20205;-74
2021/12/16 11:35:25;;;;;;;9.63;6.23;;;;;;;11.86;75.67;103613.66;5049679;28;20198;-73
2021/12/16 11:37:50;;;;;;;9.83;5.57;;;;;;;11.97;75.69;103617.72;5047948;28;20217;-74
2021/12/16 11:40:16;;;;;;;9.37;5.27;;;;;;;11.71;76.19;103620.47;5048924;28;20327;-75
2021/12/16 11:42:42;;;;;;;13.93;5.27;;;;;;;12.05;75.13;103619.06;5049415;28;20550;-76
2021/12/16 11:45:07;;;;;;;11.40;5.83;;;;;;;12.44;74.35;103621.38;5049502;28;20197;-74
2021/12/16 11:47:33;;;;;;;8.20;4.60;;;;;;;12.52;71.62;103630.38;5047844;28;20273;-75
2021/12/16 11:50:06;;;;;;;11.93;4.53;;;;;;;12.33;73.49;103643.88;5045979;28;20209;-76
2021/12/16 11:52:36;;;;;;;10.10;4.63;;;;;;;13.02;70.22;103651.22;5048387;28;20714;-75
2021/12/16 11:55:05;;;;;;;9.23;4.17;;;;;;;12.61;72.13;103646.31;5049327;28;20730;-74
2021/12/16 11:57:38;;;;;;;6.43;3.70;;;;;;;12.37;73.13;103650.06;5043841;28;20194;-75
2021/12/16 12:00:16;;;;;;;10.13;4.20;;;;;;;15.12;64.08;103620.72;5028982;28;20182;-75
2021/12/16 12:02:50;;;;;;;8.60;3.93;;;;;;;14.38;64.96;103630.09;5029299;28;20627;-75
2021/12/16 12:05:44;;;;;;;9.83;4.80;;;;;;;13.13;69.40;103627.84;5029210;28;20220;-73
2021/12/16 12:08:17;;;;;;;10.13;5.97;;;;;;;13.10;69.79;103629.34;5029211;28;20175;-75
2021/12/16 12:10:47;;;;;;;11.57;6.53;;;;;;;15.57;62.09;103612.47;5032797;28;20178;-75
2021/12/16 12:13:22;;;;;;;9.87;5.43;;;;;;;16.12;60.22;103622.63;5049184;28;20221;-74
2021/12/16 12:16:00;;;;;;;11.47;5.73;;;;;;;14.72;63.38;103622.25;5049170;28;20185;-75
2021/12/16 12:18:54;;;;;;;10.37;5.47;;;;;;;13.48;67.62;103630.56;5047846;28;20212;-75
2021/12/16 12:21:31;;;;;;;8.83;6.17;;;;;;;15.30;63.03;103624.13;5036380;28;20659;-75
2021/12/16 12:24:11;;;;;;;10.23;5.77;;;;;;;16.11;59.94;103628.59;5045547;28;20737;-75
2021/12/16 12:26:43;;;;;;;9.73;5.90;;;;;;;16.67;58.35;103623.19;5029031;28;20241;-75
2021/12/16 12:29:16;;;;;;;10.50;6.13;;;;;;;17.55;54.97;103618.78;5028992;28;20174;-75
2021/12/16 12:31:49;;;;;;;10.63;5.47;;;;;;;15.79;58.97;103630.69;5029008;28;20166;-75
2021/12/16 12:34:15;;;;;;;11.43;5.53;;;;;;;15.70;60.95;103622.53;5029428;28;20222;-74
2021/12/16 12:36:42;;;;;;;12.37;5.30;;;;;;;14.75;62.17;103630.16;5048514;28;20177;-74
2021/12/16 12:39:10;;;;;;;11.60;5.17;;;;;;;14.73;63.53;103635.22;5048808;28;20319;-75
2021/12/16 12:41:35;;;;;;;8.87;4.70;;;;;;;13.97;64.95;103639.13;5053034;28;20273;-74
2021/12/16 12:44:04;;;;;;;11.07;4.77;;;;;;;13.93;65.88;103629.47;5052655;28;20293;-74
2021/12/16 12:46:32;;;;;;;11.40;4.97;;;;;;;14.48;64.40;103624.56;5052683;28;20604;-75
2021/12/16 12:49:01;;;;;;;9.77;4.40;;;;;;;13.93;65.44;103642.34;5052403;28;20197;-74
2021/12/16 12:51:38;;;;;;;12.17;5.17;;;;;;;13.72;66.25;103642.13;5052620;28;20186;-74
2021/12/16 12:54:14;;;;;;;8.97;4.80;;;;;;;13.59;66.65;103651.75;5052529;28;20236;-75
2021/12/16 12:56:39;;;;;;;11.60;4.57;;;;;;;13.83;66.27;103655.56;5052420;28;20186;-74
2021/12/16 12:59:15;;;;;;;8.67;4.43;;;;;;;14.02;65.41;103656.59;5052112;28;20610;-75
2021/12/16 13:01:44;;;;;;;10.53;4.10;;;;;;;14.21;64.11;103655.84;5051898;28;20618;-75
2021/12/16 13:04:18;;;;;;;11.13;3.73;;;;;;;14.36;64.35;103654.91;5051382;28;20331;-74
2021/12/16 13:06:52;;;;;;;12.73;3.40;;;;;;;13.06;67.47;103666.00;5052487;28;20181;-75
2021/12/16 13:09:31;;;;;;;7.10;3.13;;;;;;;13.13;67.85;103665.53;5052106;28;20256;-74
2021/12/16 13:11:56;;;;;;;10.13;3.27;;;;;;;13.25;67.44;103666.22;5050589;28;20186;-74
2021/12/16 13:14:36;;;;;;;9.33;3.33;;;;;;;13.93;65.80;103668.09;5051142;28;20716;-74
2021/12/16 13:26:01;;;;;;;10.60;3.40;;;;;;;15.40;59.51;103639.25;5032341;28;20285;-75
2021/12/16 13:28:39;;;;;;;11.10;3.13;;;;;;;15.55;59.11;103645.09;5031830;28;20198;-74
2021/12/16 13:31:49;;;;;;;8.03;2.73;;;;;;;15.13;59.67;103663.78;5047502;28;20209;-74
2021/12/16 13:34:31;;;;;;;8.37;3.07;;;;;;;15.00;60.78;103664.03;5052025;28;20713;-74
2021/12/16 13:37:02;;;;;;;7.70;3.30;;;;;;;15.13;59.69;103658.63;5052081;28;20178;-74
2021/12/16 13:39:30;;;;;;;10.10;2.87;;;;;;;14.65;60.48;103649.47;5051831;28;20189;-74
2021/12/16 13:42:09;;;;;;;10.03;3.67;;;;;;;14.78;60.61;103649.22;5041357;28;20281;-74
2021/12/16 13:44:46;;;;;;;7.23;2.83;;;;;;;14.55;61.09;103654.13;5031371;28;20201;-74
2021/12/16 13:48:10;;;;;;;11.20;3.70;;;;;;;13.94;62.87;103660.47;5034355;28;20186;-74
2021/12/16 13:59:19;;;;;;;11.47;4.13;;;;;;;12.85;67.18;103671.72;5031446;28;20559;-74
2021/12/16 14:07:39;;;;;;;11.07;4.80;;;;;;;11.23;73.52;103690.19;5031473;28;20201;-74
2021/12/16 14:10:21;;;;;;;12.67;4.90;;;;;;;10.92;74.28;103686.47;5031053;28;20277;-74
2021/12/16 14:16:25;;;;;;;11.00;5.10;;;;;;;10.65;76.43;103683.84;5036684;28;20586;-75
2021/12/16 14:35:52;;;;;;;11.43;5.70;;;;;;;9.78;79.56;103683.94;5029986;28;20194;-75
2021/12/16 14:38:53;;;;;;;14.20;6.17;;;;;;;9.67;80.47;103679.75;5030905;28;20543;-72
2021/12/16 14:47:05;;;;;;;12.60;6.80;;;;;;;9.31;81.68;103692.53;5030816;28;20240;-72
2021/12/16 14:49:37;;;;;;;18.23;7.63;;;;;;;9.24;81.84;103703.13;5031892;28;20244;-73